Time;durP1;ratioP1;P1;durP2;ratioP2;P2;SDS_P1;SDS_P2;PMS_P1;PMS_P2;Temp;Humidity;BMP_temperature;BMP_pressure;BME280_temperature;BME280_humidity;BME280_pressure;Samples;Min_cycle;Max_cycle;Signal;HPM_P1;HPM_P2
2022/01/29 00:00:34;;;;;;;0.10;0.10;;;;;;;24.03;10.23;99889.56;5095955;28;20416;-76
2022/01/29 00:03:00;;;;;;;0.10;0.10;;;;;;;24.04;10.16;99891.19;5096471;28;20021;-76
2022/01/29 00:05:25;;;;;;;0.10;0.10;;;;;;;24.02;10.47;99884.41;5096197;28;20028;-76
2022/01/29 00:07:51;;;;;;;0.20;0.20;;;;;;;24.02;9.99;99892.59;5096356;28;20050;-75
2022/01/29 00:10:17;;;;;;;0.10;0.10;;;;;;;24.03;10.07;99892.28;5096071;28;20501;-75
2022/01/29 00:12:42;;;;;;;0.10;0.10;;;;;;;23.95;10.22;99888.25;5096205;28;20375;-76
2022/01/29 00:15:08;;;;;;;0.20;0.20;;;;;;;23.96;10.29;99881.72;5095820;28;20024;-76
2022/01/29 00:17:33;;;;;;;0.10;0.10;;;;;;;24.00;10.07;99887.41;5096125;28;20146;-76
2022/01/29 00:19:59;;;;;;;0.10;0.10;;;;;;;23.97;10.08;99869.72;5095934;28;20421;-76
2022/01/29 00:22:24;;;;;;;0.13;0.13;;;;;;;24.01;9.94;99883.59;5095741;28;20078;-75
2022/01/29 00:24:49;;;;;;;0.20;0.20;;;;;;;24.00;10.25;99877.28;5094722;28;20462;-76
2022/01/29 00:27:15;;;;;;;0.13;0.13;;;;;;;23.99;9.84;99885.78;5095927;28;20494;-76
2022/01/29 00:29:42;;;;;;;0.13;0.13;;;;;;;23.99;9.74;99881.16;5095955;28;20466;-77
2022/01/29 00:32:09;;;;;;;0.10;0.10;;;;;;;24.01;10.15;99889.03;5095837;28;20020;-76
2022/01/29 00:34:34;;;;;;;0.10;0.10;;;;;;;23.97;10.03;99877.06;5095587;28;20532;-76
2022/01/29 00:36:59;;;;;;;0.10;0.10;;;;;;;23.95;9.89;99874.63;5095404;28;20024;-75
2022/01/29 00:39:25;;;;;;;0.10;0.10;;;;;;;23.96;9.92;99868.06;5095328;28;20027;-75
2022/01/29 00:41:50;;;;;;;0.20;0.20;;;;;;;23.97;9.81;99871.59;5095582;28;20031;-76
2022/01/29 00:44:16;;;;;;;0.13;0.13;;;;;;;23.94;9.70;99862.09;5095310;28;20054;-75
2022/01/29 00:46:41;;;;;;;0.20;0.20;;;;;;;23.98;9.61;99867.78;5078867;28;20031;-76
2022/01/29 00:49:10;;;;;;;0.10;0.10;;;;;;;23.93;9.81;99867.84;5075280;28;20032;-76
2022/01/29 00:51:35;;;;;;;0.10;0.10;;;;;;;23.93;9.78;99862.38;5075336;28;20095;-76
2022/01/29 00:54:00;;;;;;;0.10;0.10;;;;;;;23.98;9.37;99862.31;5075145;28;20344;-74
2022/01/29 00:56:26;;;;;;;0.13;0.13;;;;;;;23.97;9.53;99861.53;5074791;28;20025;-76
2022/01/29 00:58:51;;;;;;;0.10;0.10;;;;;;;23.97;9.28;99852.50;5075066;28;20032;-75
2022/01/29 01:01:17;;;;;;;0.20;0.20;;;;;;;23.95;9.67;99846.53;5075486;28;20032;-76
2022/01/29 01:03:42;;;;;;;0.20;0.20;;;;;;;23.94;9.29;99840.25;5075085;28;20417;-75
2022/01/29 01:06:07;;;;;;;0.20;0.20;;;;;;;23.94;9.47;99840.25;5074620;28;20421;-76
2022/01/29 01:08:33;;;;;;;0.10;0.10;;;;;;;23.94;9.12;99840.25;5074702;28;20387;-76
2022/01/29 01:10:58;;;;;;;0.20;0.20;;;;;;;23.94;9.29;99833.97;5074483;28;20028;-75
2022/01/29 01:13:24;;;;;;;0.10;0.10;;;;;;;23.93;9.12;99837.81;5074817;28;20021;-76
2022/01/29 01:15:49;;;;;;;0.10;0.10;;;;;;;23.87;8.93;99834.34;5074399;28;20459;-75
2022/01/29 01:18:15;;;;;;;0.10;0.10;;;;;;;23.92;9.23;99841.66;5074553;28;20055;-76
2022/01/29 01:20:40;;;;;;;0.20;0.20;;;;;;;23.90;8.95;99836.47;5074692;28;20021;-77
2022/01/29 01:23:05;;;;;;;0.10;0.10;;;;;;;23.90;9.19;99838.41;5074808;28;20074;-75
2022/01/29 01:25:31;;;;;;;0.10;0.10;;;;;;;23.92;9.00;99836.19;5073090;28;20102;-75
2022/01/29 01:27:56;;;;;;;0.10;0.10;;;;;;;23.93;8.78;99826.91;5074403;28;20028;-75
2022/01/29 01:30:22;;;;;;;0.10;0.10;;;;;;;23.91;8.63;99826.38;5074663;28;20025;-78
2022/01/29 01:32:47;;;;;;;0.10;0.10;;;;;;;23.91;8.45;99820.94;5072958;28;20028;-78
2022/01/29 01:35:24;;;;;;;0.20;0.20;;;;;;;23.90;8.37;99816.56;5074514;28;20130;-77
2022/01/29 01:37:58;;;;;;;0.10;0.10;;;;;;;23.90;8.41;99811.09;5074645;28;20028;-77
2022/01/29 01:40:25;;;;;;;0.10;0.10;;;;;;;23.91;8.16;99805.38;5074470;28;20028;-77
2022/01/29 01:42:57;;;;;;;0.10;0.10;;;;;;;23.81;8.31;99781.72;5074261;28;20025;-77
2022/01/29 01:45:23;;;;;;;0.30;0.20;;;;;;;23.88;8.41;99791.50;5078199;28;20413;-79
2022/01/29 01:47:48;;;;;;;0.20;0.20;;;;;;;23.89;8.40;99787.66;5093388;28;20477;-78
2022/01/29 01:50:14;;;;;;;0.10;0.10;;;;;;;23.89;8.37;99783.00;5094498;28;20032;-79
2022/01/29 01:52:39;;;;;;;0.25;0.20;;;;;;;23.90;8.39;99781.91;5094520;28;20058;-78
2022/01/29 01:55:05;;;;;;;0.10;0.10;;;;;;;23.87;8.43;99782.50;5092711;28;20020;-78
2022/01/29 01:57:30;;;;;;;0.10;0.10;;;;;;;23.85;8.01;99783.88;5094097;28;20027;-78
2022/01/29 01:59:56;;;;;;;0.10;0.10;;;;;;;23.86;8.15;99782.78;5094371;28;20035;-78
2022/01/29 02:02:21;;;;;;;0.10;0.10;;;;;;;23.88;8.02;99780.56;5094267;28;20039;-78
2022/01/29 02:04:46;;;;;;;0.10;0.10;;;;;;;23.87;8.07;99778.94;5094026;28;20024;-78
2022/01/29 02:07:12;;;;;;;0.10;0.10;;;;;;;23.87;7.85;99784.41;5094160;28;20030;-78
2022/01/29 02:09:39;;;;;;;0.20;0.20;;;;;;;23.86;7.99;99783.59;5093828;28;20523;-78
2022/01/29 02:12:04;;;;;;;0.20;0.20;;;;;;;23.84;8.00;99779.53;5094528;28;20024;-78
2022/01/29 02:14:32;;;;;;;0.10;0.10;;;;;;;23.87;7.66;99768.03;5093733;28;20360;-78
2022/01/29 02:16:58;;;;;;;0.10;0.10;;;;;;;23.85;7.65;99764.78;5093163;28;20031;-78
2022/01/29 02:19:24;;;;;;;0.10;0.10;;;;;;;23.86;7.79;99760.97;5093985;28;20407;-78
2022/01/29 02:21:50;;;;;;;0.17;0.10;;;;;;;23.86;7.59;99763.69;5093932;28;20055;-78
2022/01/29 02:24:15;;;;;;;0.10;0.10;;;;;;;23.84;7.79;99757.72;5093927;28;20474;-78
2022/01/29 02:26:41;;;;;;;0.15;0.15;;;;;;;23.86;7.67;99758.22;5093724;28;20462;-77
2022/01/29 02:29:06;;;;;;;0.20;0.20;;;;;;;23.83;7.76;99745.97;5093635;28;20020;-75
2022/01/29 02:31:31;;;;;;;0.30;0.22;;;;;;;23.77;7.74;99730.75;5093750;28;20054;-76
2022/01/29 02:33:57;;;;;;;0.20;0.20;;;;;;;23.84;7.61;99741.34;5093733;28;20044;-76
2022/01/29 02:36:22;;;;;;;0.10;0.10;;;;;;;23.84;7.43;99728.50;5093244;28;20027;-76
2022/01/29 02:38:48;;;;;;;0.20;0.20;;;;;;;23.84;7.87;99730.44;5093371;28;20028;-76
2022/01/29 02:41:13;;;;;;;0.13;0.13;;;;;;;23.84;7.33;99716.78;5093803;28;20031;-75
2022/01/29 02:43:47;;;;;;;0.57;0.10;;;;;;;23.78;7.59;99719.56;5093710;28;20024;-75
2022/01/29 02:48:42;;;;;;;0.20;0.20;;;;;;;23.79;7.36;99702.06;5073286;28;20021;-76
2022/01/29 02:51:07;;;;;;;0.20;0.20;;;;;;;23.80;7.30;99709.16;5073289;28;20028;-76
2022/01/29 02:53:33;;;;;;;0.20;0.20;;;;;;;23.84;7.37;99708.59;5073651;28;20035;-77
2022/01/29 02:55:59;;;;;;;0.15;0.15;;;;;;;23.78;7.21;99708.63;5073797;28;20032;-76
2022/01/29 02:58:24;;;;;;;0.10;0.10;;;;;;;23.80;7.30;99714.59;5072066;28;20027;-76
2022/01/29 03:00:49;;;;;;;0.13;0.13;;;;;;;23.79;7.11;99706.72;5073378;28;20028;-76
2022/01/29 03:03:15;;;;;;;0.20;0.20;;;;;;;23.80;7.01;99700.97;5074122;28;20370;-76
2022/01/29 03:05:40;;;;;;;0.10;0.10;;;;;;;23.80;7.20;99705.59;5073429;28;20017;-75
2022/01/29 03:08:05;;;;;;;0.20;0.20;;;;;;;23.81;6.74;99702.59;5073531;28;20078;-76
2022/01/29 03:10:31;;;;;;;0.20;0.20;;;;;;;23.79;6.92;99696.59;5074205;28;20043;-76
2022/01/29 03:12:56;;;;;;;0.20;0.20;;;;;;;23.78;7.02;99694.16;5073703;28;20459;-76
2022/01/29 03:15:22;;;;;;;0.10;0.10;;;;;;;23.81;6.82;99678.03;5073249;28;20494;-76
2022/01/29 03:17:48;;;;;;;0.20;0.20;;;;;;;23.78;6.68;99689.53;5075239;28;20059;-77
2022/01/29 03:20:13;;;;;;;0.20;0.20;;;;;;;23.79;6.87;99676.69;5079733;28;20025;-77
2022/01/29 03:22:39;;;;;;;0.20;0.20;;;;;;;23.78;6.79;99684.09;5075589;28;20040;-77
2022/01/29 03:25:05;;;;;;;0.10;0.10;;;;;;;23.76;6.30;99680.81;5080563;28;20017;-77
2022/01/29 03:27:31;;;;;;;0.17;0.17;;;;;;;23.77;6.69;99674.25;5079965;28;20017;-76
2022/01/29 03:29:56;;;;;;;0.20;0.20;;;;;;;23.78;6.58;99675.06;5080634;28;20029;-77
2022/01/29 03:32:22;;;;;;;0.10;0.10;;;;;;;23.77;6.64;99670.72;5081434;28;20474;-76
2022/01/29 03:34:47;;;;;;;0.15;0.15;;;;;;;23.75;6.84;99671.03;5082044;28;20028;-77
2022/01/29 03:37:12;;;;;;;0.28;0.28;;;;;;;23.75;6.69;99662.84;5083999;28;20024;-77
2022/01/29 03:39:38;;;;;;;0.17;0.15;;;;;;;23.75;6.97;99662.84;5092664;28;20024;-76
2022/01/29 03:42:07;;;;;;;0.10;0.10;;;;;;;23.77;6.87;99660.63;5085024;28;20532;-77
2022/01/29 03:44:33;;;;;;;0.10;0.10;;;;;;;23.76;6.44;99663.63;5086245;28;20025;-76
2022/01/29 03:46:58;;;;;;;0.20;0.20;;;;;;;23.75;6.74;99673.75;5083309;28;20024;-77
2022/01/29 03:49:24;;;;;;;0.20;0.20;;;;;;;23.74;6.43;99677.56;5082019;28;20489;-76
2022/01/29 03:51:49;;;;;;;0.17;0.17;;;;;;;23.76;6.54;99680.00;5087847;28;20024;-77
2022/01/29 03:54:15;;;;;;;0.20;0.15;;;;;;;23.76;6.69;99680.81;5086807;28;20047;-76
2022/01/29 03:56:40;;;;;;;0.20;0.10;;;;;;;23.76;6.77;99680.81;5087383;28;20406;-77
2022/01/29 03:59:05;;;;;;;0.30;0.30;;;;;;;23.75;6.72;99678.38;5086165;28;20119;-76
2022/01/29 04:01:32;;;;;;;0.10;0.10;;;;;;;23.72;6.65;99668.88;5080044;28;20020;-77
2022/01/29 04:03:58;;;;;;;0.20;0.20;;;;;;;23.74;6.62;99677.56;5076489;28;20055;-76
2022/01/29 04:06:24;;;;;;;0.10;0.10;;;;;;;23.72;6.68;99673.53;5076409;28;20016;-76
2022/01/29 04:08:49;;;;;;;0.20;0.20;;;;;;;23.73;6.65;99675.13;5075985;28;20376;-75
2022/01/29 04:11:15;;;;;;;0.20;0.20;;;;;;;23.74;6.62;99672.13;5076229;28;20029;-76
2022/01/29 04:13:43;;;;;;;0.10;0.10;;;;;;;23.72;6.74;99668.06;5076558;28;20032;-76
2022/01/29 04:16:10;;;;;;;0.20;0.20;;;;;;;23.74;6.48;99657.66;5075990;28;20028;-75
2022/01/29 04:18:35;;;;;;;0.20;0.20;;;;;;;23.70;6.76;99662.06;5074553;28;20067;-75
2022/01/29 04:21:01;;;;;;;0.10;0.10;;;;;;;23.72;6.66;99657.97;5075483;28;20064;-76
2022/01/29 04:23:26;;;;;;;0.20;0.20;;;;;;;23.71;6.73;99661.78;5075844;28;20036;-76
2022/01/29 04:25:53;;;;;;;0.20;0.20;;;;;;;23.71;7.03;99664.50;5075432;28;20035;-76
2022/01/29 04:28:21;;;;;;;0.20;0.20;;;;;;;23.69;6.97;99653.09;5075646;28;20032;-75
2022/01/29 04:30:53;;;;;;;0.25;0.22;;;;;;;23.70;6.81;99654.72;5075843;28;20104;-75
2022/01/29 04:35:44;;;;;;;0.10;0.10;;;;;;;23.72;6.81;99638.06;5074117;28;20020;-74
2022/01/29 04:38:09;;;;;;;0.20;0.20;;;;;;;23.71;7.07;99626.31;5075615;28;20524;-76
2022/01/29 04:40:35;;;;;;;0.20;0.20;;;;;;;23.69;7.02;99620.34;5074558;28;20027;-75
2022/01/29 04:43:02;;;;;;;0.15;0.15;;;;;;;23.70;7.17;99608.34;5075187;28;20100;-76
2022/01/29 04:45:27;;;;;;;0.15;0.15;;;;;;;23.70;7.09;99602.06;5078950;28;20020;-76
2022/01/29 04:47:53;;;;;;;0.20;0.20;;;;;;;23.68;7.06;99580.56;5095703;28;20046;-76
2022/01/29 04:50:18;;;;;;;0.40;0.30;;;;;;;23.70;6.98;99578.34;5095249;28;20424;-76
2022/01/29 04:52:43;;;;;;;0.20;0.20;;;;;;;23.70;7.11;99572.88;5095462;28;20023;-76
2022/01/29 04:55:09;;;;;;;0.30;0.22;;;;;;;23.68;7.11;99568.81;5095436;28;20020;-75
2022/01/29 04:57:37;;;;;;;0.20;0.20;;;;;;;23.69;7.32;99570.44;5095409;28;20028;-76
2022/01/29 05:00:06;;;;;;;0.20;0.20;;;;;;;23.67;7.19;99569.94;5095301;28;20024;-76
2022/01/29 05:02:31;;;;;;;0.32;0.30;;;;;;;23.68;7.35;99577.84;5095406;28;20024;-76
2022/01/29 05:04:56;;;;;;;0.17;0.17;;;;;;;23.69;7.55;99595.00;5095191;28;20512;-76
2022/01/29 05:07:22;;;;;;;0.20;0.20;;;;;;;23.68;7.43;99593.38;5095246;28;20031;-75
2022/01/29 05:09:47;;;;;;;0.20;0.20;;;;;;;23.72;7.33;99591.69;5095158;28;20039;-75
2022/01/29 05:12:19;;;;;;;0.20;0.17;;;;;;;23.70;7.71;99582.97;5095284;28;20454;-77
2022/01/29 05:15:05;;;;;;;0.20;0.20;;;;;;;23.68;7.35;99585.19;5095241;28;20028;-78
2022/01/29 05:28:29;;;;;;;0.20;0.20;;;;;;;23.70;7.62;99561.97;5052315;28;20045;-78
2022/01/29 05:30:55;;;;;;;0.32;0.20;;;;;;;23.68;7.66;99553.28;5052300;28;20036;-78
2022/01/29 05:33:20;;;;;;;0.20;0.20;;;;;;;23.69;7.67;99538.53;5052110;28;20033;-78
2022/01/29 05:35:45;;;;;;;0.17;0.17;;;;;;;23.67;7.76;99535.28;5052026;28;20067;-78
2022/01/29 05:38:11;;;;;;;0.22;0.20;;;;;;;23.67;7.50;99518.91;5052277;28;20557;-78
2022/01/29 05:40:36;;;;;;;0.20;0.20;;;;;;;23.70;7.44;99520.22;5052390;28;20033;-78
2022/01/29 05:43:02;;;;;;;0.20;0.20;;;;;;;23.69;7.48;99516.69;5051960;28;20036;-77
2022/01/29 05:45:27;;;;;;;0.20;0.20;;;;;;;23.68;7.67;99508.81;5054812;28;20156;-77
2022/01/29 05:47:53;;;;;;;0.20;0.20;;;;;;;23.62;7.28;99510.81;5071816;28;20035;-78
2022/01/29 05:50:18;;;;;;;0.20;0.20;;;;;;;23.68;7.67;99506.91;5071757;28;20040;-77
2022/01/29 05:52:44;;;;;;;0.28;0.28;;;;;;;23.66;7.65;99506.38;5071700;28;20082;-78
2022/01/29 05:55:09;;;;;;;0.28;0.25;;;;;;;23.68;7.62;99506.91;5071718;28;20034;-78
2022/01/29 05:57:34;;;;;;;0.10;0.10;;;;;;;23.66;7.69;99491.94;5073244;28;20040;-77
2022/01/29 06:00:00;;;;;;;0.17;0.17;;;;;;;23.66;7.65;99487.28;5074233;28;20032;-78
2022/01/29 06:02:25;;;;;;;0.20;0.20;;;;;;;23.68;7.66;99482.38;5074068;28;20471;-79
2022/01/29 06:04:51;;;;;;;0.20;0.20;;;;;;;23.67;7.64;99469.81;5074025;28;20079;-78
2022/01/29 06:07:16;;;;;;;0.22;0.22;;;;;;;23.64;7.54;99475.88;5074081;28;20033;-76
2022/01/29 06:09:42;;;;;;;0.20;0.20;;;;;;;23.68;7.79;99476.06;5073334;28;20076;-75
2022/01/29 06:12:07;;;;;;;0.20;0.20;;;;;;;23.65;7.64;99460.34;5073682;28;20036;-76
2022/01/29 06:14:33;;;;;;;0.30;0.30;;;;;;;23.62;7.76;99461.72;5074110;28;20104;-76
2022/01/29 06:16:58;;;;;;;0.20;0.20;;;;;;;23.68;7.81;99463.28;5073589;28;20462;-76
2022/01/29 06:19:24;;;;;;;0.20;0.20;;;;;;;23.65;7.84;99461.13;5073704;28;20039;-75
2022/01/29 06:21:50;;;;;;;0.20;0.20;;;;;;;23.62;7.61;99450.81;5073222;28;20517;-76
2022/01/29 06:24:16;;;;;;;0.30;0.30;;;;;;;23.65;7.83;99450.22;5073585;28;20036;-75
2022/01/29 06:26:41;;;;;;;0.20;0.20;;;;;;;23.65;7.95;99446.69;5073564;28;20032;-75
2022/01/29 06:29:07;;;;;;;0.13;0.13;;;;;;;23.65;7.96;99452.16;5073504;28;20090;-76
2022/01/29 06:31:32;;;;;;;0.30;0.30;;;;;;;23.64;7.68;99448.59;5072626;28;20464;-75
2022/01/29 06:33:57;;;;;;;0.20;0.20;;;;;;;23.66;7.86;99451.81;5073423;28;20024;-75
2022/01/29 06:36:23;;;;;;;0.10;0.10;;;;;;;23.61;7.76;99438.25;5073307;28;20089;-75
2022/01/29 06:38:48;;;;;;;0.20;0.20;;;;;;;23.67;7.93;99430.84;5073066;28;20025;-76
2022/01/29 06:41:14;;;;;;;0.35;0.30;;;;;;;23.66;7.67;99424.53;5073418;28;20021;-74
2022/01/29 06:43:39;;;;;;;0.20;0.20;;;;;;;23.66;7.89;99419.09;5073479;28;20025;-75
2022/01/29 06:46:04;;;;;;;0.20;0.20;;;;;;;23.65;7.54;99414.75;5080985;28;20016;-76
2022/01/29 06:48:30;;;;;;;0.22;0.22;;;;;;;23.62;8.08;99407.16;5092400;28;20020;-77
2022/01/29 06:50:55;;;;;;;0.22;0.22;;;;;;;23.66;7.80;99404.66;5093571;28;20032;-76
2022/01/29 06:53:21;;;;;;;0.30;0.30;;;;;;;23.65;7.73;99390.22;5093126;28;20382;-76
2022/01/29 06:55:46;;;;;;;0.20;0.20;;;;;;;23.64;7.84;99388.59;5093078;28;20028;-76
2022/01/29 06:58:11;;;;;;;0.20;0.20;;;;;;;23.66;8.04;99375.44;5093521;28;20016;-76
2022/01/29 07:00:37;;;;;;;0.20;0.20;;;;;;;23.63;8.01;99385.06;5093474;28;20150;-76
2022/01/29 07:03:02;;;;;;;0.30;0.30;;;;;;;23.65;8.14;99398.41;5093624;28;20020;-75
2022/01/29 07:05:28;;;;;;;0.20;0.20;;;;;;;23.64;7.96;99396.78;5097354;28;20454;-76
2022/01/29 07:07:53;;;;;;;0.30;0.30;;;;;;;23.66;7.89;99393.75;5097235;28;20024;-75
2022/01/29 07:10:18;;;;;;;1.08;0.20;;;;;;;23.62;8.13;99380.69;5097283;28;20031;-76
2022/01/29 07:12:44;;;;;;;0.25;0.20;;;;;;;23.64;7.89;99372.22;5097296;28;20035;-75
2022/01/29 07:15:10;;;;;;;0.25;0.25;;;;;;;23.64;8.02;99361.31;5097607;28;20024;-77
2022/01/29 07:17:36;;;;;;;0.30;0.22;;;;;;;23.64;8.17;99361.31;5097239;28;20040;-76
2022/01/29 07:20:01;;;;;;;0.30;0.25;;;;;;;23.61;8.05;99345.53;5097572;28;20032;-76
2022/01/29 07:22:26;;;;;;;0.20;0.20;;;;;;;23.56;8.35;99332.00;5097340;28;20374;-76
2022/01/29 07:24:52;;;;;;;0.20;0.20;;;;;;;23.62;8.04;99339.78;5097930;28;20453;-76
2022/01/29 07:27:17;;;;;;;0.30;0.30;;;;;;;23.63;8.03;99333.25;5097275;28;20463;-76
2022/01/29 07:29:43;;;;;;;0.20;0.20;;;;;;;23.62;8.27;99325.34;5097349;28;20081;-77
2022/01/29 07:32:08;;;;;;;0.20;0.20;;;;;;;23.60;8.34;99308.47;5097262;28;20482;-76
2022/01/29 07:34:33;;;;;;;0.20;0.20;;;;;;;23.62;8.20;99309.00;5097444;28;20405;-76
2022/01/29 07:36:59;;;;;;;0.30;0.30;;;;;;;23.64;8.19;99314.94;5097144;28;20024;-76
2022/01/29 07:39:25;;;;;;;0.20;0.20;;;;;;;23.63;8.36;99305.16;5096905;28;20470;-75
2022/01/29 07:41:50;;;;;;;0.22;0.20;;;;;;;23.60;8.34;99290.19;5097657;28;20035;-76
2022/01/29 07:44:16;;;;;;;0.30;0.30;;;;;;;23.64;8.39;99276.75;5096957;28;20028;-78
2022/01/29 07:46:41;;;;;;;0.20;0.20;;;;;;;23.60;8.40;99253.94;5086134;28;20474;-79
2022/01/29 07:49:07;;;;;;;0.57;0.40;;;;;;;23.56;8.66;99242.84;5078974;28;20470;-78
2022/01/29 07:51:32;;;;;;;0.30;0.30;;;;;;;23.61;8.68;99220.91;5078254;28;20069;-78
2022/01/29 07:53:58;;;;;;;0.30;0.30;;;;;;;23.60;8.51;99218.50;5079907;28;20077;-79
2022/01/29 07:56:23;;;;;;;0.30;0.30;;;;;;;23.61;8.77;99223.66;5080889;28;20027;-79
2022/01/29 07:58:49;;;;;;;0.30;0.30;;;;;;;23.64;8.81;99214.03;5076706;28;20032;-78
2022/01/29 08:01:15;;;;;;;0.30;0.30;;;;;;;23.60;8.68;99202.13;5076190;28;20028;-78
2022/01/29 08:03:41;;;;;;;0.38;0.38;;;;;;;23.62;8.82;99197.16;5076256;28;20021;-77
2022/01/29 08:06:06;;;;;;;0.50;0.40;;;;;;;23.62;8.83;99194.44;5076408;28;20059;-78
2022/01/29 08:08:32;;;;;;;0.20;0.20;;;;;;;23.60;8.99;99192.03;5076334;28;20090;-77
2022/01/29 08:11:00;;;;;;;0.35;0.32;;;;;;;23.59;8.82;99179.50;5076458;28;20028;-77
2022/01/29 08:13:26;;;;;;;0.30;0.30;;;;;;;23.60;9.10;99186.56;5076464;28;20025;-77
2022/01/29 08:15:51;;;;;;;0.30;0.30;;;;;;;23.61;9.16;99179.19;5074937;28;20024;-77
2022/01/29 08:18:16;;;;;;;0.20;0.20;;;;;;;23.62;9.14;99176.16;5076209;28;20056;-77
2022/01/29 08:20:42;;;;;;;0.40;0.40;;;;;;;23.61;9.31;99171.00;5076184;28;20444;-78
2022/01/29 08:23:08;;;;;;;0.30;0.30;;;;;;;23.59;9.08;99168.59;5076380;28;20085;-77
2022/01/29 08:25:34;;;;;;;0.30;0.30;;;;;;;23.66;9.42;99161.91;5076120;28;20021;-79
2022/01/29 08:27:59;;;;;;;0.35;0.30;;;;;;;23.58;9.33;99160.72;5076014;28;20029;-76
2022/01/29 08:30:24;;;;;;;0.30;0.30;;;;;;;23.58;9.45;99138.91;5075738;28;20111;-76
2022/01/29 08:32:50;;;;;;;0.28;0.20;;;;;;;23.63;9.49;99133.34;5075451;28;20386;-76
2022/01/29 08:35:15;;;;;;;0.30;0.30;;;;;;;23.57;9.66;99131.81;5075382;28;20032;-75
2022/01/29 08:37:41;;;;;;;0.28;0.20;;;;;;;23.62;9.71;99129.00;5075275;28;20033;-76
2022/01/29 08:40:07;;;;;;;0.47;0.30;;;;;;;23.63;9.47;99125.97;5075156;28;20039;-76
2022/01/29 08:42:32;;;;;;;0.40;0.40;;;;;;;23.62;9.90;99115.34;5075272;28;20475;-76
2022/01/29 08:45:00;;;;;;;0.20;0.20;;;;;;;23.64;9.93;99104.94;5075547;28;20028;-76
2022/01/29 08:47:25;;;;;;;0.10;0.10;;;;;;;23.53;10.01;99092.66;5092640;28;20489;-75
2022/01/29 08:49:51;;;;;;;0.20;0.20;;;;;;;23.63;9.88;99098.69;5095338;28;20030;-76
2022/01/29 08:52:16;;;;;;;0.20;0.20;;;;;;;23.65;9.97;99101.13;5095475;28;20030;-75
2022/01/29 08:54:41;;;;;;;0.30;0.30;;;;;;;23.65;10.14;99101.13;5095145;28;20032;-76
2022/01/29 08:57:07;;;;;;;0.20;0.20;;;;;;;23.62;9.75;99094.34;5095060;28;20032;-76
2022/01/29 08:59:32;;;;;;;0.20;0.20;;;;;;;23.62;10.08;99090.81;5095358;28;20020;-76
2022/01/29 09:01:58;;;;;;;0.30;0.30;;;;;;;23.66;10.33;99080.09;5095302;28;20031;-77
2022/01/29 09:04:23;;;;;;;0.20;0.20;;;;;;;23.65;10.05;99068.41;5094991;28;20470;-75
2022/01/29 09:06:48;;;;;;;0.25;0.25;;;;;;;23.60;10.48;99055.66;5095221;28;20016;-76
2022/01/29 09:09:20;;;;;;;0.55;0.30;;;;;;;23.61;10.27;99051.84;5094986;28;20363;-77
2022/01/29 09:11:46;;;;;;;0.20;0.20;;;;;;;23.65;10.26;99038.41;5094070;28;20028;-77
2022/01/29 09:14:11;;;;;;;0.22;0.22;;;;;;;23.60;10.38;99024.88;5094865;28;20485;-77
2022/01/29 09:16:37;;;;;;;0.20;0.20;;;;;;;23.62;10.52;99025.38;5095472;28;20036;-76
2022/01/29 09:19:02;;;;;;;0.28;0.28;;;;;;;23.67;10.59;99021.72;5093277;28;20051;-74
2022/01/29 09:21:27;;;;;;;0.20;0.20;;;;;;;23.62;10.64;99020.72;5094604;28;20378;-75
2022/01/29 09:23:56;;;;;;;0.20;0.20;;;;;;;23.61;10.38;99010.94;5094895;28;20031;-75
2022/01/29 09:26:24;;;;;;;0.20;0.20;;;;;;;23.65;10.88;99005.66;5094645;28;20093;-76
2022/01/29 09:28:50;;;;;;;0.20;0.20;;;;;;;23.64;10.98;98987.69;5094969;28;20024;-77
2022/01/29 09:31:15;;;;;;;0.20;0.20;;;;;;;23.66;11.05;98993.63;5093616;28;20031;-76
2022/01/29 09:33:40;;;;;;;0.30;0.30;;;;;;;23.65;10.75;98983.84;5094690;28;20515;-76
2022/01/29 09:36:06;;;;;;;0.20;0.20;;;;;;;23.64;11.00;98979.50;5093440;28;20035;-76
2022/01/29 09:38:31;;;;;;;0.30;0.22;;;;;;;23.67;10.89;98972.63;5094638;28;20466;-76
2022/01/29 09:40:57;;;;;;;0.22;0.22;;;;;;;23.66;11.29;98971.81;5094493;28;20058;-75
2022/01/29 09:43:25;;;;;;;0.22;0.20;;;;;;;23.64;10.89;98968.59;5076179;28;20028;-76
2022/01/29 09:45:51;;;;;;;0.20;0.20;;;;;;;23.67;11.26;98957.06;5091023;28;20051;-75
2022/01/29 09:48:21;;;;;;;0.20;0.20;;;;;;;23.65;11.15;98959.31;5073808;28;20021;-75
2022/01/29 09:50:47;;;;;;;0.20;0.20;;;;;;;23.61;11.16;98964.56;5073859;28;20039;-76
2022/01/29 09:53:12;;;;;;;0.20;0.20;;;;;;;23.65;11.15;98953.84;5072889;28;20029;-76
2022/01/29 09:55:37;;;;;;;0.20;0.20;;;;;;;23.63;11.19;98945.97;5074013;28;20021;-76
2022/01/29 09:58:03;;;;;;;0.30;0.30;;;;;;;23.63;11.09;98928.81;5073926;28;20500;-76
2022/01/29 10:00:28;;;;;;;0.30;0.20;;;;;;;23.65;11.36;98921.13;5073954;28;20028;-76
2022/01/29 10:03:09;;;;;;;0.20;0.20;;;;;;;23.70;11.36;98921.00;5074227;28;20032;-74
2022/01/29 10:05:35;;;;;;;0.30;0.30;;;;;;;23.65;11.41;98910.22;5074310;28;20033;-76
2022/01/29 10:08:01;;;;;;;0.20;0.20;;;;;;;23.65;11.46;98906.69;5073889;28;20023;-76
2022/01/29 10:10:26;;;;;;;0.20;0.20;;;;;;;23.63;11.55;98907.00;5073498;28;20032;-76
2022/01/29 10:12:52;;;;;;;0.30;0.20;;;;;;;23.67;11.52;98899.78;5073750;28;20028;-76
2022/01/29 10:15:17;;;;;;;0.22;0.20;;;;;;;23.64;11.55;98897.69;5073835;28;20025;-76
2022/01/29 10:17:43;;;;;;;0.20;0.20;;;;;;;23.63;11.52;98891.44;5055404;28;20056;-76
2022/01/29 10:20:13;;;;;;;0.45;0.22;;;;;;;23.65;11.56;98876.69;5073579;28;20024;-76
2022/01/29 10:22:39;;;;;;;0.20;0.20;;;;;;;23.62;11.93;98869.94;5073380;28;20024;-77
2022/01/29 10:25:16;;;;;;;0.30;0.30;;;;;;;23.65;11.58;98880.22;5073393;28;20028;-76
2022/01/29 10:28:07;;;;;;;0.20;0.20;;;;;;;23.69;11.97;98867.56;5073724;28;20021;-76
2022/01/29 10:30:34;;;;;;;0.20;0.20;;;;;;;23.60;11.67;98859.31;5073723;28;20032;-75
2022/01/29 10:33:27;;;;;;;0.25;0.25;;;;;;;23.72;11.90;98845.13;5073554;28;20039;-75
2022/01/29 10:35:54;;;;;;;0.40;0.20;;;;;;;23.63;11.78;98849.72;5073657;28;20112;-76
2022/01/29 10:38:24;;;;;;;0.50;0.20;;;;;;;23.63;11.49;98830.63;5072662;28;20475;-74
2022/01/29 10:41:26;;;;;;;0.20;0.20;;;;;;;23.71;12.03;98827.13;5073040;28;20056;-77
2022/01/29 10:43:58;;;;;;;0.20;0.20;;;;;;;23.67;12.09;98815.25;5070557;28;20113;-75
2022/01/29 10:46:28;;;;;;;0.10;0.10;;;;;;;23.66;11.99;98799.19;5080655;28;20082;-76
2022/01/29 10:48:54;;;;;;;0.20;0.20;;;;;;;23.62;12.17;98790.84;5093620;28;20020;-76
2022/01/29 10:51:19;;;;;;;0.13;0.10;;;;;;;23.61;11.92;98781.88;5093646;28;20119;-76
2022/01/29 10:53:45;;;;;;;0.20;0.20;;;;;;;23.64;12.30;98774.97;5093467;28;20024;-75
2022/01/29 10:56:10;;;;;;;0.20;0.20;;;;;;;23.62;12.30;98758.13;5091888;28;20366;-75
2022/01/29 10:58:43;;;;;;;0.20;0.20;;;;;;;23.66;11.99;98750.91;5093099;28;20020;-76
2022/01/29 11:01:19;;;;;;;0.50;0.32;;;;;;;23.63;12.24;98737.94;5093404;28;20116;-76
2022/01/29 11:03:44;;;;;;;0.20;0.20;;;;;;;23.63;12.37;98722.38;5094255;28;20081;-76
2022/01/29 11:06:16;;;;;;;0.20;0.20;;;;;;;23.65;12.17;98718.53;5093175;28;20072;-75
2022/01/29 11:08:42;;;;;;;0.20;0.20;;;;;;;23.62;12.31;98707.09;5093397;28;20127;-76
2022/01/29 11:11:08;;;;;;;0.20;0.20;;;;;;;23.60;12.18;98697.66;5092975;28;20433;-76
2022/01/29 11:13:34;;;;;;;0.30;0.28;;;;;;;23.63;12.11;98691.56;5093904;28;20024;-75
2022/01/29 11:16:00;;;;;;;0.20;0.20;;;;;;;23.63;12.51;98691.56;5091596;28;20462;-75
2022/01/29 11:18:26;;;;;;;0.20;0.20;;;;;;;23.61;12.52;98680.97;5074856;28;20056;-76
2022/01/29 11:20:52;;;;;;;0.20;0.20;;;;;;;23.64;12.39;98671.34;5092940;28;20442;-74
2022/01/29 11:23:18;;;;;;;0.22;0.20;;;;;;;23.61;12.54;98664.63;5092896;28;20032;-75
2022/01/29 11:25:43;;;;;;;0.20;0.20;;;;;;;23.64;12.54;98646.81;5092100;28;20031;-76
2022/01/29 11:28:13;;;;;;;0.20;0.20;;;;;;;23.62;12.49;98633.47;5075316;28;20032;-76
2022/01/29 11:30:41;;;;;;;0.10;0.10;;;;;;;23.60;12.95;98627.53;5092801;28;20020;-76
2022/01/29 11:33:06;;;;;;;0.45;0.20;;;;;;;23.64;12.58;98630.44;5093155;28;20115;-76
2022/01/29 11:35:32;;;;;;;0.10;0.10;;;;;;;23.61;12.65;98620.16;5093109;28;20032;-76
2022/01/29 11:37:57;;;;;;;0.20;0.20;;;;;;;23.63;12.71;98612.50;5092754;28;20028;-75
2022/01/29 11:40:54;;;;;;;0.20;0.20;;;;;;;23.70;12.70;98612.00;5092674;28;20024;-76
2022/01/29 11:43:23;;;;;;;0.20;0.20;;;;;;;23.62;12.69;98594.50;5093014;28;20065;-75
2022/01/29 11:46:04;;;;;;;0.20;0.20;;;;;;;23.65;12.70;98588.44;5091506;28;20032;-76
2022/01/29 11:48:38;;;;;;;0.20;0.20;;;;;;;23.64;12.87;98589.53;5072541;28;20439;-76
2022/01/29 11:51:05;;;;;;;0.15;0.15;;;;;;;23.62;12.92;98568.03;5075689;28;20520;-76